sensor_id;sensor_type;location;lat;lon;timestamp;P1;durP1;ratioP1;P2;durP2;ratioP2
9334;SDS011;4706;41.844;26.082;2022-11-15T00:00:24;22.70;;;20.70;;
9334;SDS011;4706;41.844;26.082;2022-11-15T00:02:51;23.30;;;21.02;;
9334;SDS011;4706;41.844;26.082;2022-11-15T00:05:17;21.90;;;19.60;;
9334;SDS011;4706;41.844;26.082;2022-11-15T00:07:43;21.77;;;19.48;;
9334;SDS011;4706;41.844;26.082;2022-11-15T00:10:08;22.00;;;19.85;;
9334;SDS011;4706;41.844;26.082;2022-11-15T00:12:34;22.45;;;19.77;;
9334;SDS011;4706;41.844;26.082;2022-11-15T00:15:00;22.40;;;20.10;;
9334;SDS011;4706;41.844;26.082;2022-11-15T00:17:25;21.55;;;19.25;;
9334;SDS011;4706;41.844;26.082;2022-11-15T00:19:51;22.10;;;19.90;;
9334;SDS011;4706;41.844;26.082;2022-11-15T00:22:16;22.08;;;19.80;;
9334;SDS011;4706;41.844;26.082;2022-11-15T00:24:41;22.77;;;20.42;;
9334;SDS011;4706;41.844;26.082;2022-11-15T00:27:07;22.92;;;20.55;;
9334;SDS011;4706;41.844;26.082;2022-11-15T00:29:33;23.85;;;20.75;;
9334;SDS011;4706;41.844;26.082;2022-11-15T00:31:59;23.45;;;21.05;;
9334;SDS011;4706;41.844;26.082;2022-11-15T00:34:24;23.02;;;20.73;;
9334;SDS011;4706;41.844;26.082;2022-11-15T00:36:50;22.48;;;20.02;;
9334;SDS011;4706;41.844;26.082;2022-11-15T00:39:15;22.02;;;19.83;;
9334;SDS011;4706;41.844;26.082;2022-11-15T00:41:40;23.40;;;21.20;;
9334;SDS011;4706;41.844;26.082;2022-11-15T00:44:06;24.08;;;21.85;;
9334;SDS011;4706;41.844;26.082;2022-11-15T00:46:31;26.13;;;23.58;;
9334;SDS011;4706;41.844;26.082;2022-11-15T00:48:57;26.75;;;24.35;;
9334;SDS011;4706;41.844;26.082;2022-11-15T00:51:22;25.60;;;23.13;;
9334;SDS011;4706;41.844;26.082;2022-11-15T00:53:48;25.17;;;22.60;;
9334;SDS011;4706;41.844;26.082;2022-11-15T00:56:13;24.73;;;22.42;;
9334;SDS011;4706;41.844;26.082;2022-11-15T00:58:39;25.92;;;23.52;;
9334;SDS011;4706;41.844;26.082;2022-11-15T01:01:08;25.45;;;23.10;;
9334;SDS011;4706;41.844;26.082;2022-11-15T01:03:35;24.92;;;22.60;;
9334;SDS011;4706;41.844;26.082;2022-11-15T01:06:02;26.27;;;23.65;;
9334;SDS011;4706;41.844;26.082;2022-11-15T01:08:27;26.02;;;23.55;;
9334;SDS011;4706;41.844;26.082;2022-11-15T01:10:53;26.48;;;23.98;;
9334;SDS011;4706;41.844;26.082;2022-11-15T01:13:18;25.92;;;23.50;;
9334;SDS011;4706;41.844;26.082;2022-11-15T01:15:44;26.50;;;24.00;;
9334;SDS011;4706;41.844;26.082;2022-11-15T01:18:09;26.17;;;23.55;;
9334;SDS011;4706;41.844;26.082;2022-11-15T01:20:39;24.92;;;22.55;;
9334;SDS011;4706;41.844;26.082;2022-11-15T01:23:06;24.70;;;22.40;;
9334;SDS011;4706;41.844;26.082;2022-11-15T01:25:31;24.15;;;21.85;;
9334;SDS011;4706;41.844;26.082;2022-11-15T01:27:57;24.92;;;22.63;;
9334;SDS011;4706;41.844;26.082;2022-11-15T01:30:22;26.52;;;23.83;;
9334;SDS011;4706;41.844;26.082;2022-11-15T01:32:48;25.50;;;23.13;;
9334;SDS011;4706;41.844;26.082;2022-11-15T01:35:13;26.08;;;23.23;;
9334;SDS011;4706;41.844;26.082;2022-11-15T01:37:39;27.67;;;25.08;;
9334;SDS011;4706;41.844;26.082;2022-11-15T01:40:05;29.95;;;27.02;;
9334;SDS011;4706;41.844;26.082;2022-11-15T01:42:30;31.60;;;28.35;;
9334;SDS011;4706;41.844;26.082;2022-11-15T01:44:56;32.33;;;28.88;;
9334;SDS011;4706;41.844;26.082;2022-11-15T01:49:52;32.63;;;29.15;;
9334;SDS011;4706;41.844;26.082;2022-11-15T01:52:20;34.35;;;29.83;;
9334;SDS011;4706;41.844;26.082;2022-11-15T01:54:50;31.48;;;28.23;;
9334;SDS011;4706;41.844;26.082;2022-11-15T01:57:38;30.60;;;27.33;;
9334;SDS011;4706;41.844;26.082;2022-11-15T02:00:06;31.42;;;28.13;;
9334;SDS011;4706;41.844;26.082;2022-11-15T02:02:32;30.13;;;26.73;;
9334;SDS011;4706;41.844;26.082;2022-11-15T02:05:00;32.97;;;29.48;;
9334;SDS011;4706;41.844;26.082;2022-11-15T02:07:26;33.38;;;29.75;;
9334;SDS011;4706;41.844;26.082;2022-11-15T02:09:51;35.35;;;29.10;;
9334;SDS011;4706;41.844;26.082;2022-11-15T02:12:18;35.30;;;28.67;;
9334;SDS011;4706;41.844;26.082;2022-11-15T02:14:46;33.75;;;27.55;;
9334;SDS011;4706;41.844;26.082;2022-11-15T02:33:16;34.45;;;27.55;;
9334;SDS011;4706;41.844;26.082;2022-11-15T02:36:15;33.08;;;26.85;;
9334;SDS011;4706;41.844;26.082;2022-11-15T02:41:56;33.28;;;27.50;;
9334;SDS011;4706;41.844;26.082;2022-11-15T02:44:40;33.10;;;27.27;;
9334;SDS011;4706;41.844;26.082;2022-11-15T02:47:11;33.88;;;28.33;;
9334;SDS011;4706;41.844;26.082;2022-11-15T02:49:46;35.10;;;28.83;;
9334;SDS011;4706;41.844;26.082;2022-11-15T02:52:14;35.58;;;30.33;;
9334;SDS011;4706;41.844;26.082;2022-11-15T02:54:54;35.53;;;29.90;;
9334;SDS011;4706;41.844;26.082;2022-11-15T02:57:26;37.88;;;30.48;;
9334;SDS011;4706;41.844;26.082;2022-11-15T03:00:08;38.30;;;30.23;;
9334;SDS011;4706;41.844;26.082;2022-11-15T03:07:37;36.47;;;29.92;;
9334;SDS011;4706;41.844;26.082;2022-11-15T03:10:35;34.72;;;29.63;;
9334;SDS011;4706;41.844;26.082;2022-11-15T03:16:03;32.83;;;29.25;;
9334;SDS011;4706;41.844;26.082;2022-11-15T03:18:33;32.33;;;28.98;;
9334;SDS011;4706;41.844;26.082;2022-11-15T03:21:03;32.53;;;29.02;;
9334;SDS011;4706;41.844;26.082;2022-11-15T03:23:32;31.20;;;28.02;;
9334;SDS011;4706;41.844;26.082;2022-11-15T03:26:00;32.70;;;27.73;;
9334;SDS011;4706;41.844;26.082;2022-11-15T03:28:36;30.83;;;27.40;;
9334;SDS011;4706;41.844;26.082;2022-11-15T03:31:07;35.28;;;28.10;;
9334;SDS011;4706;41.844;26.082;2022-11-15T03:33:54;35.33;;;29.15;;
9334;SDS011;4706;41.844;26.082;2022-11-15T03:36:23;36.85;;;29.27;;
9334;SDS011;4706;41.844;26.082;2022-11-15T03:38:54;35.40;;;28.05;;
9334;SDS011;4706;41.844;26.082;2022-11-15T03:44:28;34.42;;;27.70;;
9334;SDS011;4706;41.844;26.082;2022-11-15T03:47:21;33.85;;;27.73;;
9334;SDS011;4706;41.844;26.082;2022-11-15T03:49:59;33.42;;;28.05;;
9334;SDS011;4706;41.844;26.082;2022-11-15T03:52:30;34.38;;;28.35;;
9334;SDS011;4706;41.844;26.082;2022-11-15T03:54:57;33.97;;;28.77;;
9334;SDS011;4706;41.844;26.082;2022-11-15T03:57:26;35.85;;;28.38;;
9334;SDS011;4706;41.844;26.082;2022-11-15T03:59:52;36.97;;;28.33;;
9334;SDS011;4706;41.844;26.082;2022-11-15T04:02:17;35.92;;;28.10;;
9334;SDS011;4706;41.844;26.082;2022-11-15T04:04:43;34.78;;;29.05;;
9334;SDS011;4706;41.844;26.082;2022-11-15T04:07:09;36.13;;;29.40;;
9334;SDS011;4706;41.844;26.082;2022-11-15T04:09:34;38.00;;;28.63;;
9334;SDS011;4706;41.844;26.082;2022-11-15T04:12:20;38.72;;;29.55;;
9334;SDS011;4706;41.844;26.082;2022-11-15T04:15:06;36.85;;;30.52;;
9334;SDS011;4706;41.844;26.082;2022-11-15T04:17:43;39.25;;;29.70;;
9334;SDS011;4706;41.844;26.082;2022-11-15T04:20:20;39.85;;;29.73;;
9334;SDS011;4706;41.844;26.082;2022-11-15T04:23:10;38.78;;;30.33;;
9334;SDS011;4706;41.844;26.082;2022-11-15T04:25:58;34.63;;;27.35;;
9334;SDS011;4706;41.844;26.082;2022-11-15T04:28:26;33.92;;;27.40;;
9334;SDS011;4706;41.844;26.082;2022-11-15T04:30:51;37.08;;;28.25;;
9334;SDS011;4706;41.844;26.082;2022-11-15T04:33:17;34.35;;;27.35;;
9334;SDS011;4706;41.844;26.082;2022-11-15T04:35:43;35.85;;;28.10;;
9334;SDS011;4706;41.844;26.082;2022-11-15T04:38:29;36.40;;;28.98;;
9334;SDS011;4706;41.844;26.082;2022-11-15T04:40:54;40.00;;;30.83;;
9334;SDS011;4706;41.844;26.082;2022-11-15T04:43:20;41.10;;;31.88;;
9334;SDS011;4706;41.844;26.082;2022-11-15T04:45:45;40.63;;;30.95;;
9334;SDS011;4706;41.844;26.082;2022-11-15T04:48:11;38.05;;;29.35;;
9334;SDS011;4706;41.844;26.082;2022-11-15T04:50:36;36.17;;;28.50;;
9334;SDS011;4706;41.844;26.082;2022-11-15T04:53:02;39.20;;;30.50;;
9334;SDS011;4706;41.844;26.082;2022-11-15T04:55:27;35.65;;;27.98;;
9334;SDS011;4706;41.844;26.082;2022-11-15T04:57:59;35.75;;;28.55;;
9334;SDS011;4706;41.844;26.082;2022-11-15T05:00:26;37.28;;;29.58;;
9334;SDS011;4706;41.844;26.082;2022-11-15T05:02:53;33.67;;;28.05;;
9334;SDS011;4706;41.844;26.082;2022-11-15T05:05:38;33.97;;;28.30;;
9334;SDS011;4706;41.844;26.082;2022-11-15T05:08:03;34.05;;;27.30;;
9334;SDS011;4706;41.844;26.082;2022-11-15T05:10:29;33.90;;;27.98;;
9334;SDS011;4706;41.844;26.082;2022-11-15T05:12:55;37.97;;;29.70;;
9334;SDS011;4706;41.844;26.082;2022-11-15T05:15:20;35.03;;;28.73;;
9334;SDS011;4706;41.844;26.082;2022-11-15T05:17:46;33.28;;;27.23;;
9334;SDS011;4706;41.844;26.082;2022-11-15T05:20:12;35.80;;;28.45;;
9334;SDS011;4706;41.844;26.082;2022-11-15T05:22:37;34.40;;;28.05;;
9334;SDS011;4706;41.844;26.082;2022-11-15T05:25:03;35.30;;;28.88;;
9334;SDS011;4706;41.844;26.082;2022-11-15T05:27:29;37.28;;;29.20;;
9334;SDS011;4706;41.844;26.082;2022-11-15T05:29:55;36.20;;;29.35;;
9334;SDS011;4706;41.844;26.082;2022-11-15T05:32:20;38.10;;;29.52;;
9334;SDS011;4706;41.844;26.082;2022-11-15T05:34:46;37.90;;;30.08;;
9334;SDS011;4706;41.844;26.082;2022-11-15T05:37:13;37.63;;;29.70;;
9334;SDS011;4706;41.844;26.082;2022-11-15T05:39:39;41.80;;;31.38;;
9334;SDS011;4706;41.844;26.082;2022-11-15T05:44:37;41.05;;;31.30;;
9334;SDS011;4706;41.844;26.082;2022-11-15T05:47:07;39.13;;;29.50;;
9334;SDS011;4706;41.844;26.082;2022-11-15T05:49:35;37.22;;;28.55;;
9334;SDS011;4706;41.844;26.082;2022-11-15T05:52:05;42.58;;;31.42;;
9334;SDS011;4706;41.844;26.082;2022-11-15T05:54:32;37.88;;;28.90;;
9334;SDS011;4706;41.844;26.082;2022-11-15T05:57:00;36.22;;;29.50;;
9334;SDS011;4706;41.844;26.082;2022-11-15T05:59:28;39.45;;;29.83;;
9334;SDS011;4706;41.844;26.082;2022-11-15T06:01:55;38.42;;;29.80;;
9334;SDS011;4706;41.844;26.082;2022-11-15T06:04:21;40.90;;;31.23;;
9334;SDS011;4706;41.844;26.082;2022-11-15T06:06:47;34.58;;;28.17;;
9334;SDS011;4706;41.844;26.082;2022-11-15T06:09:12;34.53;;;27.70;;
9334;SDS011;4706;41.844;26.082;2022-11-15T06:11:37;35.03;;;29.25;;
9334;SDS011;4706;41.844;26.082;2022-11-15T06:14:03;34.30;;;27.88;;
9334;SDS011;4706;41.844;26.082;2022-11-15T06:16:29;33.53;;;27.58;;
9334;SDS011;4706;41.844;26.082;2022-11-15T06:18:54;35.78;;;28.83;;
9334;SDS011;4706;41.844;26.082;2022-11-15T06:21:20;38.63;;;29.58;;
9334;SDS011;4706;41.844;26.082;2022-11-15T06:23:45;36.03;;;28.38;;
9334;SDS011;4706;41.844;26.082;2022-11-15T06:26:11;38.03;;;29.77;;
9334;SDS011;4706;41.844;26.082;2022-11-15T06:28:36;31.33;;;27.67;;
9334;SDS011;4706;41.844;26.082;2022-11-15T06:31:03;35.15;;;28.85;;
9334;SDS011;4706;41.844;26.082;2022-11-15T06:33:33;42.53;;;29.63;;
9334;SDS011;4706;41.844;26.082;2022-11-15T06:36:02;33.00;;;27.10;;
9334;SDS011;4706;41.844;26.082;2022-11-15T06:38:29;33.85;;;27.27;;
9334;SDS011;4706;41.844;26.082;2022-11-15T06:40:54;33.33;;;28.75;;
9334;SDS011;4706;41.844;26.082;2022-11-15T06:43:25;37.83;;;30.15;;
9334;SDS011;4706;41.844;26.082;2022-11-15T06:45:51;37.50;;;31.83;;
9334;SDS011;4706;41.844;26.082;2022-11-15T06:48:16;37.80;;;30.60;;
9334;SDS011;4706;41.844;26.082;2022-11-15T06:50:42;43.13;;;30.13;;
9334;SDS011;4706;41.844;26.082;2022-11-15T06:53:07;41.72;;;28.75;;
9334;SDS011;4706;41.844;26.082;2022-11-15T06:55:33;29.88;;;26.35;;
9334;SDS011;4706;41.844;26.082;2022-11-15T06:57:58;32.22;;;25.30;;
9334;SDS011;4706;41.844;26.082;2022-11-15T07:00:24;31.58;;;25.00;;
9334;SDS011;4706;41.844;26.082;2022-11-15T07:02:49;32.70;;;27.02;;
9334;SDS011;4706;41.844;26.082;2022-11-15T07:05:15;29.65;;;25.50;;
9334;SDS011;4706;41.844;26.082;2022-11-15T07:07:41;27.60;;;24.60;;
9334;SDS011;4706;41.844;26.082;2022-11-15T07:10:07;28.17;;;24.08;;
9334;SDS011;4706;41.844;26.082;2022-11-15T07:12:33;30.70;;;24.67;;
9334;SDS011;4706;41.844;26.082;2022-11-15T07:14:59;33.92;;;24.40;;
9334;SDS011;4706;41.844;26.082;2022-11-15T07:17:24;33.17;;;25.92;;
9334;SDS011;4706;41.844;26.082;2022-11-15T07:19:50;27.45;;;24.25;;
9334;SDS011;4706;41.844;26.082;2022-11-15T07:22:15;35.05;;;23.73;;
9334;SDS011;4706;41.844;26.082;2022-11-15T07:24:41;30.45;;;23.33;;
9334;SDS011;4706;41.844;26.082;2022-11-15T07:27:06;26.67;;;23.90;;
9334;SDS011;4706;41.844;26.082;2022-11-15T07:29:32;31.17;;;23.27;;
9334;SDS011;4706;41.844;26.082;2022-11-15T07:31:57;26.73;;;22.92;;
9334;SDS011;4706;41.844;26.082;2022-11-15T07:34:24;31.33;;;23.13;;
9334;SDS011;4706;41.844;26.082;2022-11-15T07:36:50;31.55;;;24.42;;
9334;SDS011;4706;41.844;26.082;2022-11-15T07:39:15;35.30;;;24.40;;
9334;SDS011;4706;41.844;26.082;2022-11-15T07:41:41;37.95;;;25.02;;
9334;SDS011;4706;41.844;26.082;2022-11-15T07:44:08;29.58;;;24.48;;
9334;SDS011;4706;41.844;26.082;2022-11-15T07:46:34;31.10;;;24.88;;
9334;SDS011;4706;41.844;26.082;2022-11-15T07:48:59;25.65;;;22.50;;
9334;SDS011;4706;41.844;26.082;2022-11-15T07:51:25;29.88;;;22.60;;
9334;SDS011;4706;41.844;26.082;2022-11-15T07:53:50;24.85;;;22.15;;
9334;SDS011;4706;41.844;26.082;2022-11-15T07:56:16;31.23;;;24.73;;
9334;SDS011;4706;41.844;26.082;2022-11-15T07:58:41;32.97;;;26.23;;
9334;SDS011;4706;41.844;26.082;2022-11-15T08:01:08;55.72;;;26.08;;
9334;SDS011;4706;41.844;26.082;2022-11-15T08:03:34;34.88;;;25.75;;
9334;SDS011;4706;41.844;26.082;2022-11-15T08:06:01;47.13;;;33.33;;
9334;SDS011;4706;41.844;26.082;2022-11-15T08:08:26;30.42;;;24.45;;
9334;SDS011;4706;41.844;26.082;2022-11-15T08:10:52;29.85;;;23.80;;
9334;SDS011;4706;41.844;26.082;2022-11-15T08:13:17;26.50;;;21.85;;
9334;SDS011;4706;41.844;26.082;2022-11-15T08:15:43;37.08;;;27.42;;
9334;SDS011;4706;41.844;26.082;2022-11-15T08:18:12;34.97;;;27.83;;
9334;SDS011;4706;41.844;26.082;2022-11-15T08:20:40;31.70;;;26.85;;
9334;SDS011;4706;41.844;26.082;2022-11-15T08:23:06;31.95;;;27.70;;
9334;SDS011;4706;41.844;26.082;2022-11-15T08:25:33;34.78;;;25.85;;
9334;SDS011;4706;41.844;26.082;2022-11-15T08:28:01;34.65;;;26.58;;
9334;SDS011;4706;41.844;26.082;2022-11-15T08:30:28;33.55;;;27.45;;
9334;SDS011;4706;41.844;26.082;2022-11-15T08:32:56;31.02;;;26.30;;
9334;SDS011;4706;41.844;26.082;2022-11-15T08:35:23;33.78;;;27.98;;
9334;SDS011;4706;41.844;26.082;2022-11-15T08:37:49;27.98;;;24.80;;
9334;SDS011;4706;41.844;26.082;2022-11-15T08:40:15;29.80;;;23.98;;
9334;SDS011;4706;41.844;26.082;2022-11-15T08:42:41;51.45;;;41.65;;
9334;SDS011;4706;41.844;26.082;2022-11-15T08:45:07;41.40;;;32.05;;
9334;SDS011;4706;41.844;26.082;2022-11-15T08:47:33;32.80;;;26.83;;
9334;SDS011;4706;41.844;26.082;2022-11-15T08:50:00;31.85;;;24.73;;
9334;SDS011;4706;41.844;26.082;2022-11-15T08:52:25;32.03;;;24.45;;
9334;SDS011;4706;41.844;26.082;2022-11-15T08:54:51;29.50;;;24.20;;
9334;SDS011;4706;41.844;26.082;2022-11-15T08:57:16;27.88;;;23.77;;
9334;SDS011;4706;41.844;26.082;2022-11-15T08:59:42;28.77;;;22.08;;
9334;SDS011;4706;41.844;26.082;2022-11-15T09:02:14;30.02;;;26.27;;
9334;SDS011;4706;41.844;26.082;2022-11-15T09:04:42;29.25;;;22.15;;
9334;SDS011;4706;41.844;26.082;2022-11-15T09:07:09;26.88;;;22.38;;
9334;SDS011;4706;41.844;26.082;2022-11-15T09:09:36;30.90;;;22.60;;
9334;SDS011;4706;41.844;26.082;2022-11-15T09:12:03;30.42;;;23.90;;
9334;SDS011;4706;41.844;26.082;2022-11-15T09:14:30;31.30;;;24.20;;
9334;SDS011;4706;41.844;26.082;2022-11-15T09:16:56;30.52;;;22.65;;
9334;SDS011;4706;41.844;26.082;2022-11-15T09:19:22;37.15;;;26.38;;
9334;SDS011;4706;41.844;26.082;2022-11-15T09:21:47;43.17;;;26.30;;
9334;SDS011;4706;41.844;26.082;2022-11-15T09:24:13;35.13;;;23.92;;
9334;SDS011;4706;41.844;26.082;2022-11-15T09:26:38;35.05;;;23.80;;
9334;SDS011;4706;41.844;26.082;2022-11-15T09:29:05;49.65;;;24.48;;
9334;SDS011;4706;41.844;26.082;2022-11-15T09:31:33;29.40;;;21.45;;
9334;SDS011;4706;41.844;26.082;2022-11-15T09:33:58;32.58;;;22.23;;
9334;SDS011;4706;41.844;26.082;2022-11-15T09:36:24;42.92;;;26.08;;
9334;SDS011;4706;41.844;26.082;2022-11-15T09:38:51;34.25;;;22.65;;
9334;SDS011;4706;41.844;26.082;2022-11-15T09:41:30;34.45;;;25.23;;
9334;SDS011;4706;41.844;26.082;2022-11-15T09:50:15;35.03;;;22.60;;
9334;SDS011;4706;41.844;26.082;2022-11-15T09:52:47;35.90;;;23.50;;
9334;SDS011;4706;41.844;26.082;2022-11-15T09:55:14;33.85;;;24.75;;
9334;SDS011;4706;41.844;26.082;2022-11-15T10:05:45;39.88;;;24.42;;
9334;SDS011;4706;41.844;26.082;2022-11-15T10:11:14;33.72;;;24.67;;
9334;SDS011;4706;41.844;26.082;2022-11-15T10:13:51;31.13;;;22.83;;
9334;SDS011;4706;41.844;26.082;2022-11-15T10:16:29;28.20;;;21.88;;
9334;SDS011;4706;41.844;26.082;2022-11-15T10:25:13;28.73;;;22.80;;
9334;SDS011;4706;41.844;26.082;2022-11-15T10:27:47;34.05;;;23.48;;
9334;SDS011;4706;41.844;26.082;2022-11-15T10:30:18;29.85;;;23.60;;
9334;SDS011;4706;41.844;26.082;2022-11-15T10:32:45;31.58;;;24.75;;
9334;SDS011;4706;41.844;26.082;2022-11-15T10:35:16;31.08;;;24.52;;
9334;SDS011;4706;41.844;26.082;2022-11-15T10:37:50;27.58;;;22.27;;
9334;SDS011;4706;41.844;26.082;2022-11-15T10:42:44;29.88;;;23.30;;
9334;SDS011;4706;41.844;26.082;2022-11-15T10:45:31;28.25;;;22.85;;
9334;SDS011;4706;41.844;26.082;2022-11-15T10:50:38;30.48;;;24.05;;
9334;SDS011;4706;41.844;26.082;2022-11-15T10:55:54;30.42;;;22.80;;
9334;SDS011;4706;41.844;26.082;2022-11-15T11:00:54;29.15;;;23.50;;
9334;SDS011;4706;41.844;26.082;2022-11-15T11:05:45;27.38;;;23.65;;
9334;SDS011;4706;41.844;26.082;2022-11-15T11:10:36;27.35;;;21.83;;
9334;SDS011;4706;41.844;26.082;2022-11-15T11:13:15;30.38;;;26.77;;
9334;SDS011;4706;41.844;26.082;2022-11-15T11:15:50;27.67;;;22.02;;
9334;SDS011;4706;41.844;26.082;2022-11-15T11:18:26;27.00;;;22.70;;
9334;SDS011;4706;41.844;26.082;2022-11-15T11:20:58;26.95;;;22.13;;
9334;SDS011;4706;41.844;26.082;2022-11-15T11:29:20;28.33;;;22.55;;
9334;SDS011;4706;41.844;26.082;2022-11-15T11:40:27;32.15;;;24.35;;
9334;SDS011;4706;41.844;26.082;2022-11-15T11:49:06;34.30;;;23.63;;
9334;SDS011;4706;41.844;26.082;2022-11-15T11:57:01;27.52;;;22.75;;
9334;SDS011;4706;41.844;26.082;2022-11-15T11:59:36;25.70;;;22.65;;
9334;SDS011;4706;41.844;26.082;2022-11-15T12:02:17;27.08;;;23.88;;
9334;SDS011;4706;41.844;26.082;2022-11-15T12:04:57;23.13;;;20.70;;
9334;SDS011;4706;41.844;26.082;2022-11-15T12:07:32;28.05;;;22.90;;
9334;SDS011;4706;41.844;26.082;2022-11-15T12:10:04;30.70;;;24.98;;
9334;SDS011;4706;41.844;26.082;2022-11-15T12:18:38;25.95;;;23.35;;
9334;SDS011;4706;41.844;26.082;2022-11-15T12:21:06;24.63;;;22.23;;
9334;SDS011;4706;41.844;26.082;2022-11-15T12:23:47;25.33;;;22.90;;
9334;SDS011;4706;41.844;26.082;2022-11-15T12:26:19;30.98;;;27.88;;
9334;SDS011;4706;41.844;26.082;2022-11-15T12:34:00;22.08;;;20.17;;
9334;SDS011;4706;41.844;26.082;2022-11-15T12:36:30;23.88;;;21.60;;
9334;SDS011;4706;41.844;26.082;2022-11-15T12:41:29;22.60;;;20.48;;
9334;SDS011;4706;41.844;26.082;2022-11-15T12:43:56;23.30;;;21.00;;
9334;SDS011;4706;41.844;26.082;2022-11-15T13:17:44;28.33;;;25.42;;
9334;SDS011;4706;41.844;26.082;2022-11-15T13:33:16;36.00;;;32.15;;
9334;SDS011;4706;41.844;26.082;2022-11-15T13:35:46;57.70;;;47.10;;
9334;SDS011;4706;41.844;26.082;2022-11-15T13:40:57;36.97;;;32.72;;
9334;SDS011;4706;41.844;26.082;2022-11-15T13:48:34;40.85;;;36.65;;
9334;SDS011;4706;41.844;26.082;2022-11-15T13:51:03;36.33;;;32.72;;
9334;SDS011;4706;41.844;26.082;2022-11-15T13:53:32;35.97;;;32.13;;
9334;SDS011;4706;41.844;26.082;2022-11-15T13:56:00;35.50;;;31.80;;
9334;SDS011;4706;41.844;26.082;2022-11-15T13:58:28;34.70;;;31.05;;
9334;SDS011;4706;41.844;26.082;2022-11-15T14:00:58;30.83;;;27.77;;
9334;SDS011;4706;41.844;26.082;2022-11-15T14:03:38;35.00;;;31.48;;
9334;SDS011;4706;41.844;26.082;2022-11-15T14:06:13;37.65;;;33.30;;
9334;SDS011;4706;41.844;26.082;2022-11-15T14:08:41;40.22;;;36.10;;
9334;SDS011;4706;41.844;26.082;2022-11-15T14:11:22;39.17;;;35.05;;
9334;SDS011;4706;41.844;26.082;2022-11-15T14:16:32;41.75;;;37.35;;
9334;SDS011;4706;41.844;26.082;2022-11-15T14:19:03;42.15;;;37.65;;
9334;SDS011;4706;41.844;26.082;2022-11-15T14:21:30;41.80;;;36.35;;
9334;SDS011;4706;41.844;26.082;2022-11-15T14:24:15;41.67;;;37.13;;
9334;SDS011;4706;41.844;26.082;2022-11-15T14:26:45;40.47;;;36.20;;
9334;SDS011;4706;41.844;26.082;2022-11-15T14:29:29;43.20;;;38.53;;
9334;SDS011;4706;41.844;26.082;2022-11-15T14:34:41;47.30;;;39.70;;
9334;SDS011;4706;41.844;26.082;2022-11-15T14:40:03;53.38;;;47.78;;
9334;SDS011;4706;41.844;26.082;2022-11-15T14:42:30;42.42;;;37.67;;
9334;SDS011;4706;41.844;26.082;2022-11-15T14:44:56;43.63;;;38.92;;
9334;SDS011;4706;41.844;26.082;2022-11-15T14:47:22;42.60;;;37.42;;
9334;SDS011;4706;41.844;26.082;2022-11-15T14:49:47;40.40;;;35.53;;
9334;SDS011;4706;41.844;26.082;2022-11-15T14:52:34;46.13;;;41.22;;
9334;SDS011;4706;41.844;26.082;2022-11-15T14:55:01;48.42;;;43.35;;
9334;SDS011;4706;41.844;26.082;2022-11-15T14:57:28;46.30;;;41.30;;
9334;SDS011;4706;41.844;26.082;2022-11-15T14:59:54;45.35;;;40.47;;
9334;SDS011;4706;41.844;26.082;2022-11-15T15:02:21;43.95;;;39.45;;
9334;SDS011;4706;41.844;26.082;2022-11-15T15:04:49;43.67;;;38.97;;
9334;SDS011;4706;41.844;26.082;2022-11-15T15:07:15;50.50;;;41.45;;
9334;SDS011;4706;41.844;26.082;2022-11-15T15:09:41;44.53;;;39.38;;
9334;SDS011;4706;41.844;26.082;2022-11-15T15:12:18;43.83;;;39.17;;
9334;SDS011;4706;41.844;26.082;2022-11-15T15:14:48;52.78;;;45.47;;
9334;SDS011;4706;41.844;26.082;2022-11-15T15:17:15;64.78;;;54.28;;
9334;SDS011;4706;41.844;26.082;2022-11-15T15:19:42;65.90;;;54.95;;
9334;SDS011;4706;41.844;26.082;2022-11-15T15:22:12;62.92;;;52.38;;
9334;SDS011;4706;41.844;26.082;2022-11-15T15:24:39;80.18;;;66.47;;
9334;SDS011;4706;41.844;26.082;2022-11-15T15:27:05;97.20;;;76.38;;
9334;SDS011;4706;41.844;26.082;2022-11-15T15:29:30;87.30;;;71.95;;
9334;SDS011;4706;41.844;26.082;2022-11-15T15:31:56;78.43;;;60.80;;
9334;SDS011;4706;41.844;26.082;2022-11-15T15:34:21;128.07;;;93.13;;
9334;SDS011;4706;41.844;26.082;2022-11-15T15:36:47;96.95;;;71.90;;
9334;SDS011;4706;41.844;26.082;2022-11-15T15:39:12;78.47;;;64.00;;
9334;SDS011;4706;41.844;26.082;2022-11-15T15:41:38;85.53;;;66.93;;
9334;SDS011;4706;41.844;26.082;2022-11-15T15:44:03;88.25;;;68.03;;
9334;SDS011;4706;41.844;26.082;2022-11-15T15:46:29;67.22;;;54.55;;
9334;SDS011;4706;41.844;26.082;2022-11-15T15:48:54;73.03;;;59.95;;
9334;SDS011;4706;41.844;26.082;2022-11-15T15:51:20;62.70;;;55.72;;
9334;SDS011;4706;41.844;26.082;2022-11-15T15:53:46;72.85;;;64.93;;
9334;SDS011;4706;41.844;26.082;2022-11-15T15:56:12;38.33;;;34.55;;
9334;SDS011;4706;41.844;26.082;2022-11-15T15:58:37;41.08;;;34.75;;
9334;SDS011;4706;41.844;26.082;2022-11-15T16:01:03;37.35;;;33.55;;
9334;SDS011;4706;41.844;26.082;2022-11-15T16:03:29;36.95;;;32.70;;
9334;SDS011;4706;41.844;26.082;2022-11-15T16:05:54;37.28;;;33.58;;
9334;SDS011;4706;41.844;26.082;2022-11-15T16:08:23;35.58;;;31.75;;
9334;SDS011;4706;41.844;26.082;2022-11-15T16:10:51;35.65;;;32.15;;
9334;SDS011;4706;41.844;26.082;2022-11-15T16:13:17;35.20;;;31.60;;
9334;SDS011;4706;41.844;26.082;2022-11-15T16:15:42;37.22;;;33.42;;
9334;SDS011;4706;41.844;26.082;2022-11-15T16:18:14;55.38;;;48.00;;
9334;SDS011;4706;41.844;26.082;2022-11-15T16:20:42;54.03;;;46.75;;
9334;SDS011;4706;41.844;26.082;2022-11-15T16:23:16;46.88;;;39.00;;
9334;SDS011;4706;41.844;26.082;2022-11-15T16:25:51;47.88;;;42.45;;
9334;SDS011;4706;41.844;26.082;2022-11-15T16:28:21;44.40;;;39.50;;
9334;SDS011;4706;41.844;26.082;2022-11-15T16:30:49;42.90;;;37.80;;
9334;SDS011;4706;41.844;26.082;2022-11-15T16:33:24;59.17;;;53.13;;
9334;SDS011;4706;41.844;26.082;2022-11-15T16:35:50;76.45;;;69.05;;
9334;SDS011;4706;41.844;26.082;2022-11-15T16:38:15;89.85;;;81.18;;
9334;SDS011;4706;41.844;26.082;2022-11-15T16:40:42;70.72;;;63.67;;
9334;SDS011;4706;41.844;26.082;2022-11-15T16:43:08;64.15;;;57.55;;
9334;SDS011;4706;41.844;26.082;2022-11-15T16:45:34;78.50;;;70.57;;
9334;SDS011;4706;41.844;26.082;2022-11-15T16:48:00;68.90;;;61.33;;
9334;SDS011;4706;41.844;26.082;2022-11-15T16:50:30;103.32;;;93.47;;
9334;SDS011;4706;41.844;26.082;2022-11-15T16:52:59;108.35;;;97.13;;
9334;SDS011;4706;41.844;26.082;2022-11-15T16:55:26;109.00;;;97.97;;
9334;SDS011;4706;41.844;26.082;2022-11-15T16:57:53;65.80;;;57.63;;
9334;SDS011;4706;41.844;26.082;2022-11-15T17:00:19;56.55;;;50.90;;
9334;SDS011;4706;41.844;26.082;2022-11-15T17:02:46;62.50;;;55.75;;
9334;SDS011;4706;41.844;26.082;2022-11-15T17:05:13;72.50;;;64.65;;
9334;SDS011;4706;41.844;26.082;2022-11-15T17:07:39;72.18;;;60.95;;
9334;SDS011;4706;41.844;26.082;2022-11-15T17:10:06;71.13;;;63.35;;
9334;SDS011;4706;41.844;26.082;2022-11-15T17:12:34;72.18;;;64.10;;
9334;SDS011;4706;41.844;26.082;2022-11-15T17:15:00;79.60;;;71.10;;
9334;SDS011;4706;41.844;26.082;2022-11-15T17:17:27;87.70;;;78.30;;
9334;SDS011;4706;41.844;26.082;2022-11-15T17:19:52;65.60;;;58.47;;
9334;SDS011;4706;41.844;26.082;2022-11-15T17:22:18;73.00;;;65.13;;
9334;SDS011;4706;41.844;26.082;2022-11-15T17:24:44;80.95;;;64.72;;
9334;SDS011;4706;41.844;26.082;2022-11-15T17:27:10;76.75;;;67.82;;
9334;SDS011;4706;41.844;26.082;2022-11-15T17:29:35;61.50;;;54.85;;
9334;SDS011;4706;41.844;26.082;2022-11-15T17:32:01;63.45;;;56.47;;
9334;SDS011;4706;41.844;26.082;2022-11-15T17:34:27;61.47;;;54.75;;